createdAt,value
2023-05-18T00:01:14.557Z,12.50
2023-05-18T00:03:42.602Z,12.70
2023-05-18T00:06:10.772Z,12.40
2023-05-18T00:08:39.891Z,12.30
2023-05-18T00:11:08.103Z,12.70
2023-05-18T00:13:35.951Z,12.30
2023-05-18T00:16:03.824Z,12.40
2023-05-18T00:18:31.600Z,12.30
2023-05-18T00:20:59.596Z,12.10
2023-05-18T00:23:29.854Z,12.20
2023-05-18T00:26:00.160Z,12.00
2023-05-18T00:28:28.129Z,12.20
2023-05-18T00:30:56.328Z,12.20
2023-05-18T00:33:24.405Z,12.10
2023-05-18T00:35:52.229Z,11.70
2023-05-18T00:38:20.016Z,12.10
2023-05-18T00:40:47.801Z,12.10
2023-05-18T00:43:16.875Z,11.90
2023-05-18T00:45:44.733Z,12.30
2023-05-18T00:48:12.559Z,11.40
2023-05-18T00:50:41.222Z,11.90
2023-05-18T00:53:10.506Z,11.90
2023-05-18T00:55:38.593Z,11.90
2023-05-18T00:58:06.977Z,12.00
2023-05-18T01:00:37.601Z,11.70
2023-05-18T01:03:06.199Z,12.00
2023-05-18T01:05:34.043Z,11.80
2023-05-18T01:08:03.676Z,11.70
2023-05-18T01:10:37.773Z,11.30
2023-05-18T01:13:12.719Z,11.70
2023-05-18T01:15:42.843Z,11.90
2023-05-18T01:18:16.299Z,11.70
2023-05-18T01:20:48.283Z,12.00
2023-05-18T01:24:03.426Z,12.00
2023-05-18T01:26:37.211Z,11.70
2023-05-18T01:29:13.885Z,11.60
2023-05-18T01:31:41.993Z,11.80
2023-05-18T01:34:09.762Z,11.80
2023-05-18T01:36:37.545Z,11.70
2023-05-18T01:39:05.551Z,11.20
2023-05-18T01:41:39.158Z,11.70
2023-05-18T01:44:12.369Z,11.50
2023-05-18T01:46:47.808Z,11.60
2023-05-18T01:49:23.747Z,11.50
2023-05-18T01:51:52.512Z,11.50
2023-05-18T01:54:22.107Z,11.60
2023-05-18T01:56:53.848Z,11.50
2023-05-18T01:59:22.192Z,11.40
2023-05-18T02:01:50.164Z,11.50
2023-05-18T02:04:27.039Z,11.40
2023-05-18T02:06:55.263Z,11.60
2023-05-18T02:09:23.142Z,11.20
2023-05-18T02:11:52.242Z,11.30
2023-05-18T02:14:20.062Z,11.30
2023-05-18T02:16:52.907Z,11.10
2023-05-18T02:19:21.272Z,11.50
2023-05-18T02:21:49.304Z,10.90
2023-05-18T02:24:17.744Z,11.30
2023-05-18T02:26:45.784Z,11.10
2023-05-18T02:29:14.934Z,11.20
2023-05-18T02:31:42.782Z,11.40
2023-05-18T02:34:10.596Z,11.20
2023-05-18T02:36:39.753Z,11.00
2023-05-18T02:39:08.033Z,11.20
2023-05-18T02:41:36.446Z,11.20
2023-05-18T02:44:04.804Z,11.10
2023-05-18T02:46:34.077Z,11.00
2023-05-18T02:49:02.534Z,11.20
2023-05-18T02:51:31.323Z,11.10
2023-05-18T02:53:59.105Z,11.10
2023-05-18T02:56:26.878Z,10.90
2023-05-18T02:58:57.641Z,10.50
2023-05-18T03:01:27.242Z,10.90
2023-05-18T03:03:58.235Z,11.20
2023-05-18T03:06:27.014Z,10.80
2023-05-18T03:08:55.253Z,10.90
2023-05-18T03:11:23.064Z,11.10
2023-05-18T03:13:50.997Z,10.90
2023-05-18T03:16:18.898Z,11.00
2023-05-18T03:18:47.015Z,11.10
2023-05-18T03:21:16.649Z,11.20
2023-05-18T03:23:44.439Z,10.90
2023-05-18T03:26:12.459Z,11.20
2023-05-18T03:28:40.390Z,11.00
2023-05-18T03:31:08.272Z,11.10
2023-05-18T03:33:36.060Z,11.10
2023-05-18T03:36:05.897Z,11.10
2023-05-18T03:38:35.014Z,11.10
2023-05-18T03:41:02.787Z,11.20
2023-05-18T03:43:32.505Z,10.90
2023-05-18T03:46:00.466Z,11.10
2023-05-18T03:48:28.727Z,10.90
2023-05-18T03:50:56.652Z,11.10
2023-05-18T03:53:24.426Z,11.10
2023-05-18T03:55:53.556Z,11.00
2023-05-18T03:58:21.379Z,11.00
2023-05-18T04:00:49.650Z,10.90
2023-05-18T04:03:17.934Z,10.80
2023-05-18T04:05:45.878Z,10.90
2023-05-18T04:08:14.496Z,10.90
2023-05-18T04:10:43.046Z,10.90
2023-05-18T04:13:12.538Z,10.90
2023-05-18T04:15:40.345Z,10.90
2023-05-18T04:18:10.228Z,10.90
2023-05-18T04:20:38.867Z,11.10
2023-05-18T04:23:09.636Z,10.60
2023-05-18T04:25:39.143Z,11.30
2023-05-18T04:28:07.027Z,11.00
2023-05-18T04:30:37.589Z,11.30
2023-05-18T04:33:06.554Z,11.30
2023-05-18T04:35:35.159Z,11.10
2023-05-18T04:38:03.467Z,11.50
2023-05-18T04:40:33.968Z,11.30
2023-05-18T04:43:02.113Z,11.40
2023-05-18T04:45:30.280Z,11.30
2023-05-18T04:47:59.564Z,11.50
2023-05-18T04:50:28.118Z,11.50
2023-05-18T04:52:58.085Z,11.60
2023-05-18T04:55:27.311Z,11.40
2023-05-18T04:57:56.731Z,11.20
2023-05-18T05:00:26.377Z,11.70
2023-05-18T05:02:54.886Z,11.70
2023-05-18T05:05:25.337Z,11.80
2023-05-18T05:07:53.779Z,11.70
2023-05-18T05:10:22.309Z,11.60
2023-05-18T05:12:51.394Z,11.50
2023-05-18T05:15:20.107Z,12.00
2023-05-18T05:17:48.603Z,12.00
2023-05-18T05:20:17.164Z,11.80
2023-05-18T05:22:46.351Z,11.80
2023-05-18T05:25:14.156Z,12.00
2023-05-18T05:27:41.974Z,12.00
2023-05-18T05:30:10.593Z,11.90
2023-05-18T05:32:38.610Z,11.90
2023-05-18T05:35:07.223Z,12.20
2023-05-18T05:37:36.140Z,12.30
2023-05-18T05:40:06.750Z,12.00
2023-05-18T05:42:34.747Z,12.70
2023-05-18T05:45:02.605Z,12.70
2023-05-18T05:47:30.419Z,12.50
2023-05-18T05:49:58.172Z,12.40
2023-05-18T05:52:28.573Z,13.00
2023-05-18T05:54:56.374Z,13.00
2023-05-18T05:57:25.730Z,13.20
2023-05-18T05:59:53.486Z,13.20
2023-05-18T06:02:21.637Z,13.40
2023-05-18T06:04:49.419Z,13.60
2023-05-18T06:07:17.548Z,13.50
2023-05-18T06:09:45.404Z,13.60
2023-05-18T06:12:13.164Z,13.90
2023-05-18T06:14:42.226Z,14.00
2023-05-18T06:17:10.053Z,14.00
2023-05-18T06:19:37.806Z,14.10
2023-05-18T06:22:06.152Z,14.30
2023-05-18T06:24:33.973Z,14.40
2023-05-18T06:27:01.706Z,14.70
2023-05-18T06:29:30.546Z,14.60
2023-05-18T06:31:59.703Z,14.70
2023-05-18T06:34:27.579Z,14.70
2023-05-18T06:36:56.007Z,15.50
2023-05-18T06:39:23.815Z,16.50
2023-05-18T06:41:52.232Z,18.60
2023-05-18T06:44:20.061Z,20.80
2023-05-18T06:46:48.933Z,22.10
2023-05-18T06:49:18.107Z,23.20
2023-05-18T06:51:45.896Z,23.40
2023-05-18T06:54:14.487Z,23.70
2023-05-18T06:56:42.355Z,24.00
2023-05-18T06:59:10.098Z,24.10
2023-05-18T07:01:38.193Z,24.00
2023-05-18T07:04:06.174Z,24.50
2023-05-18T07:06:35.276Z,25.30
2023-05-18T07:09:03.844Z,25.80
2023-05-18T07:11:31.622Z,25.90
2023-05-18T07:13:59.478Z,26.50
2023-05-18T07:16:27.796Z,26.60
2023-05-18T07:18:58.075Z,26.50
2023-05-18T07:21:26.096Z,26.30
2023-05-18T07:23:55.476Z,26.60
2023-05-18T07:26:23.509Z,26.60
2023-05-18T07:28:51.870Z,26.90
2023-05-18T07:31:21.500Z,26.90
2023-05-18T07:33:49.807Z,26.80
2023-05-18T07:36:17.876Z,27.60
2023-05-18T07:38:45.702Z,28.00
2023-05-18T07:41:14.874Z,28.30
2023-05-18T07:43:42.665Z,28.30
2023-05-18T07:46:10.558Z,27.90
2023-05-18T07:48:40.534Z,28.00
2023-05-18T07:51:09.055Z,27.80
2023-05-18T07:53:37.854Z,28.10
2023-05-18T07:56:06.223Z,28.90
2023-05-18T07:58:35.384Z,28.60
2023-05-18T08:01:05.183Z,27.90
2023-05-18T08:03:35.060Z,28.20
2023-05-18T08:06:05.016Z,28.10
2023-05-18T08:08:37.227Z,28.60
2023-05-18T08:11:07.551Z,28.80
2023-05-18T08:13:38.960Z,28.70
2023-05-18T08:16:12.323Z,27.70
2023-05-18T08:18:42.528Z,27.60
2023-05-18T08:21:12.578Z,27.60
2023-05-18T08:23:42.746Z,28.30
2023-05-18T08:26:14.236Z,29.10
2023-05-18T08:28:46.456Z,28.80
2023-05-18T08:31:16.396Z,28.60
2023-05-18T08:33:46.340Z,28.00
2023-05-18T08:36:17.609Z,28.50
2023-05-18T08:38:47.207Z,28.40
2023-05-18T08:41:23.257Z,28.10
2023-05-18T08:44:02.312Z,27.20
2023-05-18T08:46:36.303Z,27.30
2023-05-18T08:49:08.100Z,26.80
2023-05-18T08:51:39.268Z,26.20
2023-05-18T08:54:10.759Z,26.50
2023-05-18T08:56:40.802Z,27.40
2023-05-18T08:59:11.760Z,27.80
2023-05-18T09:01:39.786Z,28.30
2023-05-18T09:04:08.429Z,28.30
2023-05-18T09:06:36.650Z,27.40
2023-05-18T09:09:05.339Z,26.50
2023-05-18T09:11:34.924Z,26.30
2023-05-18T09:14:03.512Z,26.70
2023-05-18T09:16:33.197Z,26.30
2023-05-18T09:19:01.497Z,24.90
2023-05-18T09:21:32.170Z,25.30
2023-05-18T09:24:00.985Z,25.70
2023-05-18T09:26:28.985Z,25.20
2023-05-18T09:28:56.767Z,25.50
2023-05-18T09:31:26.694Z,26.20
2023-05-18T09:33:56.010Z,26.60
2023-05-18T09:36:29.118Z,26.90
2023-05-18T09:38:58.417Z,26.40
2023-05-18T09:41:28.141Z,26.50
2023-05-18T09:43:55.952Z,26.80
2023-05-18T09:46:23.853Z,26.90
2023-05-18T09:48:53.470Z,26.70
2023-05-18T09:51:25.229Z,26.50
2023-05-18T09:53:56.445Z,26.80
2023-05-18T09:56:25.300Z,27.40
2023-05-18T09:58:53.151Z,27.50
2023-05-18T10:01:21.216Z,26.60
2023-05-18T10:03:49.864Z,25.70
2023-05-18T10:06:20.131Z,24.90
2023-05-18T10:08:49.763Z,24.30
2023-05-18T10:11:21.678Z,24.30
2023-05-18T10:13:55.033Z,24.40
2023-05-18T10:16:25.526Z,24.30
2023-05-18T10:18:55.595Z,24.40
2023-05-18T10:21:27.379Z,24.90
2023-05-18T10:23:57.021Z,25.20
2023-05-18T10:26:29.386Z,25.00
2023-05-18T10:28:59.229Z,25.80
2023-05-18T10:31:28.749Z,26.20
2023-05-18T10:33:58.442Z,25.60
2023-05-18T10:36:29.971Z,24.90
2023-05-18T10:39:01.754Z,24.20
2023-05-18T10:41:31.858Z,24.30
2023-05-18T10:44:03.837Z,24.40
2023-05-18T10:46:32.049Z,24.10
2023-05-18T10:49:01.949Z,24.30
2023-05-18T10:51:31.627Z,24.40
2023-05-18T10:54:11.680Z,24.20
2023-05-18T10:56:41.065Z,24.60
2023-05-18T10:59:09.628Z,24.80
2023-05-18T11:01:38.055Z,24.90
2023-05-18T11:04:06.422Z,24.60
2023-05-18T11:06:35.323Z,24.40
2023-05-18T11:09:04.691Z,24.40
2023-05-18T11:11:52.716Z,24.70
2023-05-18T11:14:27.629Z,25.00
2023-05-18T11:17:15.754Z,25.20
2023-05-18T11:20:13.950Z,25.40
2023-05-18T11:22:43.817Z,25.30
2023-05-18T11:25:39.772Z,25.40
2023-05-18T11:28:10.101Z,25.20
2023-05-18T11:30:49.813Z,24.80
2023-05-18T11:33:22.854Z,24.70
2023-05-18T11:36:07.142Z,25.00
2023-05-18T11:38:49.503Z,24.90
2023-05-18T11:41:33.576Z,25.30
2023-05-18T11:44:18.164Z,25.30
2023-05-18T11:47:05.938Z,25.30
2023-05-18T11:49:38.341Z,25.10
2023-05-18T11:52:14.355Z,25.00
2023-05-18T11:54:46.800Z,24.90
2023-05-18T11:57:18.498Z,24.90
2023-05-18T11:59:47.962Z,25.00
2023-05-18T12:02:21.458Z,25.30
2023-05-18T12:04:51.475Z,25.30
2023-05-18T12:07:20.377Z,25.30
2023-05-18T12:09:48.851Z,25.10
2023-05-18T12:12:20.559Z,25.40
2023-05-18T12:14:55.431Z,25.40
2023-05-18T12:17:24.375Z,24.90
2023-05-18T12:19:52.265Z,24.40
2023-05-18T12:22:20.122Z,24.80
2023-05-18T12:24:47.946Z,24.90
2023-05-18T12:27:17.070Z,24.60
2023-05-18T12:29:45.470Z,24.00
2023-05-18T12:32:14.419Z,23.30
2023-05-18T12:34:45.768Z,23.00
2023-05-18T12:37:13.556Z,23.40
2023-05-18T12:39:41.480Z,23.70
2023-05-18T12:42:11.318Z,23.60
2023-05-18T12:44:42.129Z,23.00
2023-05-18T12:47:11.546Z,23.00
2023-05-18T12:49:40.723Z,22.90
2023-05-18T12:52:13.237Z,22.70
2023-05-18T12:54:59.951Z,22.60
2023-05-18T12:57:30.998Z,22.80
2023-05-18T13:00:01.819Z,22.80
2023-05-18T13:02:34.388Z,22.90
2023-05-18T13:05:07.452Z,22.90
2023-05-18T13:07:40.319Z,22.70
2023-05-18T13:10:10.491Z,22.70
2023-05-18T13:12:43.528Z,22.60
2023-05-18T13:15:15.869Z,22.30
2023-05-18T13:17:57.733Z,22.20
2023-05-18T13:20:32.462Z,22.00
2023-05-18T13:23:04.172Z,21.80
2023-05-18T13:25:33.431Z,22.10
2023-05-18T13:28:02.727Z,22.20
2023-05-18T13:30:32.562Z,22.30
2023-05-18T13:33:00.710Z,22.40
2023-05-18T13:35:29.119Z,22.50
2023-05-18T13:37:57.263Z,22.60
2023-05-18T13:40:26.075Z,22.80
2023-05-18T13:42:54.080Z,23.00
2023-05-18T13:45:22.441Z,23.40
2023-05-18T13:47:53.439Z,23.40
2023-05-18T13:50:22.859Z,23.30
2023-05-18T13:52:50.782Z,23.20
2023-05-18T13:55:18.642Z,23.00
2023-05-18T13:57:47.174Z,22.70
2023-05-18T14:00:16.920Z,22.90
2023-05-18T14:02:46.160Z,22.90
2023-05-18T14:05:16.243Z,22.80
2023-05-18T14:07:44.614Z,22.60
2023-05-18T14:10:13.815Z,22.50
2023-05-18T14:12:43.123Z,22.60
2023-05-18T14:15:13.508Z,22.80
2023-05-18T14:17:41.683Z,23.00
2023-05-18T14:20:10.832Z,23.10
2023-05-18T14:22:40.267Z,23.00
2023-05-18T14:25:08.721Z,22.80
2023-05-18T14:27:36.556Z,22.50
2023-05-18T14:30:06.096Z,22.30
2023-05-18T14:32:34.018Z,22.00
2023-05-18T14:35:01.824Z,22.00
2023-05-18T14:37:29.654Z,21.80
2023-05-18T14:39:58.855Z,21.70
2023-05-18T14:42:26.720Z,21.40
2023-05-18T14:44:54.610Z,21.90
2023-05-18T14:47:22.534Z,22.00
2023-05-18T14:49:50.367Z,22.00
2023-05-18T14:52:18.193Z,22.10
2023-05-18T14:54:47.677Z,22.20
2023-05-18T14:57:16.875Z,21.80
2023-05-18T14:59:44.648Z,22.30
2023-05-18T15:02:12.570Z,22.00
2023-05-18T15:04:40.358Z,21.70
2023-05-18T15:07:08.574Z,21.50
2023-05-18T15:09:36.421Z,21.50
2023-05-18T15:12:04.548Z,21.60
2023-05-18T15:14:34.733Z,21.70
2023-05-18T15:17:02.573Z,22.00
2023-05-18T15:19:30.600Z,22.00
2023-05-18T15:21:58.498Z,21.90
2023-05-18T15:24:26.421Z,21.70
2023-05-18T15:26:54.329Z,21.30
2023-05-18T15:29:22.191Z,21.80
2023-05-18T15:31:54.180Z,21.70
2023-05-18T15:34:22.114Z,21.70
2023-05-18T15:36:50.046Z,21.80
2023-05-18T15:39:17.842Z,21.80
2023-05-18T15:41:45.856Z,21.90
2023-05-18T15:44:13.782Z,22.00
2023-05-18T15:46:41.699Z,21.40
2023-05-18T15:49:10.976Z,21.90
2023-05-18T15:51:38.983Z,21.90
2023-05-18T15:54:06.812Z,22.00
2023-05-18T15:56:34.657Z,21.90
2023-05-18T15:59:02.397Z,21.40
2023-05-18T16:01:30.270Z,21.50
2023-05-18T16:03:58.116Z,21.40
2023-05-18T16:06:27.409Z,20.90
2023-05-18T16:08:55.978Z,20.90
2023-05-18T16:11:23.881Z,20.80
2023-05-18T16:13:56.671Z,21.10
2023-05-18T16:16:25.265Z,21.00
2023-05-18T16:18:53.426Z,21.00
2023-05-18T16:21:21.634Z,20.90
2023-05-18T16:23:50.816Z,21.00
2023-05-18T16:26:18.650Z,20.40
2023-05-18T16:28:46.498Z,20.80
2023-05-18T16:31:14.422Z,21.00
2023-05-18T16:33:42.412Z,20.90
2023-05-18T16:36:11.331Z,20.60
2023-05-18T16:38:39.281Z,20.90
2023-05-18T16:41:08.617Z,21.10
2023-05-18T16:43:36.485Z,21.00
2023-05-18T16:46:04.349Z,21.20
2023-05-18T16:48:32.118Z,20.80
2023-05-18T16:50:59.839Z,20.70
2023-05-18T16:53:27.755Z,20.60
2023-05-18T16:55:55.518Z,20.70
2023-05-18T16:58:24.778Z,20.60
2023-05-18T17:00:53.190Z,20.70
2023-05-18T17:03:21.488Z,20.50
2023-05-18T17:05:49.790Z,20.30
2023-05-18T17:08:17.523Z,19.80
2023-05-18T17:10:45.272Z,19.80
2023-05-18T17:13:13.097Z,19.80
2023-05-18T17:15:42.271Z,19.70
2023-05-18T17:18:10.199Z,19.80
2023-05-18T17:20:37.965Z,19.40
2023-05-18T17:23:05.845Z,19.20
2023-05-18T17:25:33.726Z,19.60
2023-05-18T17:28:01.477Z,19.50
2023-05-18T17:30:29.322Z,19.30
2023-05-18T17:32:58.571Z,19.10
2023-05-18T17:35:26.464Z,19.40
2023-05-18T17:37:54.893Z,19.30
2023-05-18T17:40:22.882Z,19.20
2023-05-18T17:42:50.833Z,19.20
2023-05-18T17:45:18.843Z,19.40
2023-05-18T17:47:47.006Z,19.10
2023-05-18T17:50:16.209Z,18.60
2023-05-18T17:52:43.995Z,18.90
2023-05-18T17:55:11.872Z,18.80
2023-05-18T17:57:44.906Z,18.80
2023-05-18T18:00:14.005Z,18.30
2023-05-18T18:02:42.106Z,18.60
2023-05-18T18:05:10.686Z,18.30
2023-05-18T18:07:40.145Z,18.50
2023-05-18T18:10:08.863Z,18.20
2023-05-18T18:12:36.662Z,18.50
2023-05-18T18:15:04.770Z,18.30
2023-05-18T18:17:33.323Z,18.20
2023-05-18T18:20:01.243Z,18.20
2023-05-18T18:22:29.026Z,18.00
2023-05-18T18:24:58.299Z,18.10
2023-05-18T18:27:26.343Z,18.20
2023-05-18T18:29:54.196Z,18.00
2023-05-18T18:32:22.185Z,17.90
2023-05-18T18:34:50.073Z,17.90
2023-05-18T18:37:18.242Z,17.40
2023-05-18T18:39:46.074Z,17.50
2023-05-18T18:42:18.681Z,17.30
2023-05-18T18:44:52.664Z,17.30
2023-05-18T18:47:20.439Z,17.50
2023-05-18T18:49:48.354Z,17.20
2023-05-18T18:52:16.182Z,17.00
2023-05-18T18:54:43.937Z,17.10
2023-05-18T18:57:12.333Z,17.00
2023-05-18T18:59:42.589Z,17.00
2023-05-18T19:02:10.673Z,16.80
2023-05-18T19:04:38.693Z,16.80
2023-05-18T19:07:06.549Z,16.80
2023-05-18T19:09:36.101Z,16.70
2023-05-18T19:12:04.091Z,16.50
2023-05-18T19:14:32.254Z,16.70
2023-05-18T19:17:01.464Z,16.40
2023-05-18T19:19:29.530Z,16.30
2023-05-18T19:21:57.469Z,16.20
2023-05-18T19:24:25.242Z,16.10
2023-05-18T19:26:53.207Z,16.20
2023-05-18T19:29:21.339Z,16.40
2023-05-18T19:31:49.222Z,16.30
2023-05-18T19:34:18.326Z,16.20
2023-05-18T19:36:46.061Z,16.00
2023-05-18T19:39:15.768Z,15.90
2023-05-18T19:41:43.622Z,16.00
2023-05-18T19:44:11.635Z,15.90
2023-05-18T19:46:39.540Z,15.40
2023-05-18T19:49:07.623Z,15.60
2023-05-18T19:51:36.948Z,15.70
2023-05-18T19:54:05.268Z,15.80
2023-05-18T19:56:33.077Z,15.50
2023-05-18T19:59:00.833Z,15.60
2023-05-18T20:01:28.732Z,15.70
2023-05-18T20:03:59.144Z,15.40
2023-05-18T20:06:27.928Z,15.50
2023-05-18T20:08:57.120Z,15.30
2023-05-18T20:11:24.981Z,15.50
2023-05-18T20:13:52.913Z,15.20
2023-05-18T20:16:20.748Z,15.30
2023-05-18T20:18:50.085Z,15.10
2023-05-18T20:21:18.504Z,14.90
2023-05-18T20:23:47.343Z,14.80
2023-05-18T20:26:16.900Z,14.60
2023-05-18T20:28:44.797Z,14.70
2023-05-18T20:31:12.592Z,14.80
2023-05-18T20:33:40.363Z,15.00
2023-05-18T20:36:09.056Z,15.10
2023-05-18T20:38:38.761Z,14.90
2023-05-18T20:41:08.107Z,15.00
2023-05-18T20:43:38.424Z,15.10
2023-05-18T20:46:08.542Z,14.80
2023-05-18T20:48:37.569Z,15.10
2023-05-18T20:51:05.964Z,15.20
2023-05-18T20:53:34.174Z,15.00
2023-05-18T20:56:05.257Z,15.10
2023-05-18T20:58:34.026Z,14.80
2023-05-18T21:01:07.248Z,15.00
2023-05-18T21:03:35.391Z,14.60
2023-05-18T21:06:04.717Z,14.60
2023-05-18T21:08:32.567Z,14.90
2023-05-18T21:11:00.357Z,14.70
2023-05-18T21:13:28.111Z,14.90
2023-05-18T21:15:55.944Z,14.90
2023-05-18T21:18:25.157Z,15.30
2023-05-18T21:20:54.766Z,15.10
2023-05-18T21:23:22.526Z,15.50
2023-05-18T21:25:50.309Z,15.20
2023-05-18T21:28:18.902Z,15.30
2023-05-18T21:30:46.669Z,14.80
2023-05-18T21:33:14.611Z,15.20
2023-05-18T21:35:44.012Z,14.90
2023-05-18T21:38:11.805Z,15.30
2023-05-18T21:40:40.976Z,15.20
2023-05-18T21:43:11.233Z,15.20
2023-05-18T21:45:39.866Z,15.10
2023-05-18T21:48:08.195Z,15.30
2023-05-18T21:50:36.152Z,15.30
2023-05-18T21:53:05.478Z,15.20
2023-05-18T21:55:33.807Z,15.40
2023-05-18T21:58:01.668Z,15.00
2023-05-18T22:00:29.929Z,14.90
2023-05-18T22:02:58.873Z,14.80
2023-05-18T22:05:26.729Z,15.10
2023-05-18T22:07:54.462Z,15.10
2023-05-18T22:10:23.745Z,15.10
2023-05-18T22:12:51.578Z,14.80
2023-05-18T22:15:22.045Z,15.00
2023-05-18T22:17:49.985Z,14.80
2023-05-18T22:20:17.887Z,15.00
2023-05-18T22:22:45.620Z,14.90
2023-05-18T22:25:14.117Z,14.30
2023-05-18T22:27:43.256Z,14.30
2023-05-18T22:30:12.204Z,14.80
2023-05-18T22:32:40.018Z,14.70
2023-05-18T22:35:09.429Z,14.80
2023-05-18T22:37:37.520Z,14.60
2023-05-18T22:40:06.408Z,14.10
2023-05-18T22:42:34.323Z,14.70
2023-05-18T22:45:03.709Z,14.70
2023-05-18T22:47:31.704Z,14.50
2023-05-18T22:49:59.594Z,14.30
2023-05-18T22:52:27.885Z,14.70
2023-05-18T22:54:55.696Z,14.70
2023-05-18T22:57:23.487Z,14.00
2023-05-18T22:59:51.300Z,14.40
2023-05-18T23:02:20.493Z,14.20
2023-05-18T23:04:48.267Z,14.40
2023-05-18T23:07:16.119Z,14.40
2023-05-18T23:09:43.957Z,14.60
2023-05-18T23:12:11.683Z,14.20
2023-05-18T23:14:39.448Z,14.40
2023-05-18T23:17:08.051Z,14.50
2023-05-18T23:19:37.216Z,14.30
2023-05-18T23:22:05.602Z,14.30
2023-05-18T23:24:33.436Z,14.30
2023-05-18T23:27:01.326Z,14.30
2023-05-18T23:29:29.087Z,14.60
2023-05-18T23:31:56.959Z,14.10
2023-05-18T23:34:25.144Z,14.20
2023-05-18T23:36:57.391Z,14.50
2023-05-18T23:39:27.595Z,14.20
2023-05-18T23:41:58.553Z,14.30
2023-05-18T23:44:26.794Z,14.40
2023-05-18T23:46:55.438Z,14.10
2023-05-18T23:49:23.674Z,13.70
2023-05-18T23:51:54.810Z,14.00
2023-05-18T23:54:23.484Z,14.10
2023-05-18T23:56:51.771Z,14.30
2023-05-18T23:59:19.996Z,13.90
